createdAt,value
2017-12-19T00:02:21.048Z,100767.94
2017-12-19T00:04:48.521Z,100767.88
2017-12-19T00:07:16.023Z,100768.11
2017-12-19T00:09:43.497Z,100768.59
2017-12-19T00:12:11.024Z,100772.13
2017-12-19T00:14:38.511Z,100774.30
2017-12-19T00:17:05.967Z,100774.88
2017-12-19T00:19:33.455Z,100786.07
2017-12-19T00:22:00.982Z,100781.59
2017-12-19T00:24:28.440Z,100783.17
2017-12-19T00:26:55.914Z,100780.64
2017-12-19T00:29:23.371Z,100787.91
2017-12-19T00:31:50.828Z,100794.54
2017-12-19T00:34:18.305Z,100796.64
2017-12-19T00:36:45.786Z,100798.09
2017-12-19T00:39:13.272Z,100795.58
2017-12-19T00:41:40.755Z,100797.40
2017-12-19T00:44:08.211Z,100804.75
2017-12-19T00:46:35.688Z,100801.58
2017-12-19T00:49:03.227Z,100812.99
2017-12-19T00:51:30.699Z,100816.20
2017-12-19T00:53:58.169Z,100815.98
2017-12-19T00:56:25.655Z,100819.61
2017-12-19T00:58:53.121Z,100820.28
2017-12-19T01:01:20.605Z,100830.34
2017-12-19T01:03:48.067Z,100832.36
2017-12-19T01:06:15.545Z,100828.27
2017-12-19T01:08:43.052Z,100834.52
2017-12-19T01:11:10.527Z,100841.61
2017-12-19T01:13:37.996Z,100836.23
2017-12-19T01:16:05.498Z,100836.64
2017-12-19T01:18:33.022Z,100840.48
2017-12-19T01:21:00.491Z,100848.22
2017-12-19T01:23:27.977Z,100853.04
2017-12-19T01:25:55.451Z,100863.28
2017-12-19T01:28:22.904Z,100860.13
2017-12-19T01:30:50.371Z,100853.53
2017-12-19T01:33:17.825Z,100857.37
2017-12-19T01:35:45.323Z,100858.86
2017-12-19T01:38:12.800Z,100852.44
2017-12-19T01:40:40.282Z,100854.19
2017-12-19T01:43:07.774Z,100856.30
2017-12-19T01:45:35.293Z,100852.98
2017-12-19T01:48:02.824Z,100856.16
2017-12-19T01:50:30.327Z,100864.66
2017-12-19T01:52:57.794Z,100860.73
2017-12-19T01:55:25.269Z,100861.06
2017-12-19T01:57:52.745Z,100872.14
2017-12-19T02:00:20.222Z,100874.13
2017-12-19T02:02:47.687Z,100878.23
2017-12-19T02:05:15.185Z,100872.38
2017-12-19T02:07:42.664Z,100865.83
2017-12-19T02:10:10.124Z,100868.23
2017-12-19T02:12:37.584Z,100865.52
2017-12-19T02:15:05.049Z,100873.05
2017-12-19T02:17:32.516Z,100885.17
2017-12-19T02:19:59.987Z,100877.68
2017-12-19T02:22:27.451Z,100876.31
2017-12-19T02:24:54.942Z,100873.25
2017-12-19T02:27:22.426Z,100878.72
2017-12-19T02:29:50.317Z,100874.69
2017-12-19T02:32:17.821Z,100871.35
2017-12-19T02:34:45.303Z,100867.04
2017-12-19T02:37:12.785Z,100870.53
2017-12-19T02:39:40.284Z,100877.24
2017-12-19T02:42:07.747Z,100877.75
2017-12-19T02:44:35.204Z,100875.30
2017-12-19T02:47:02.689Z,100883.86
2017-12-19T02:49:30.315Z,100877.53
2017-12-19T02:51:57.920Z,100887.73
2017-12-19T02:54:25.378Z,100879.39
2017-12-19T02:56:52.836Z,100889.31
2017-12-19T02:59:20.366Z,100890.58
2017-12-19T03:01:47.843Z,100889.48
2017-12-19T03:04:15.306Z,100881.34
2017-12-19T03:06:42.775Z,100887.30
2017-12-19T03:09:10.245Z,100883.53
2017-12-19T03:11:37.740Z,100887.45
2017-12-19T03:14:05.260Z,100886.95
2017-12-19T03:16:34.249Z,100889.60
2017-12-19T03:19:01.753Z,100883.00
2017-12-19T03:21:29.219Z,100886.37
2017-12-19T03:23:56.687Z,100887.81
2017-12-19T03:26:24.224Z,100896.78
2017-12-19T03:28:51.686Z,100898.09
2017-12-19T03:31:19.164Z,100898.15
2017-12-19T03:33:46.623Z,100892.70
2017-12-19T03:36:14.083Z,100896.56
2017-12-19T03:38:41.562Z,100898.95
2017-12-19T03:41:09.047Z,100887.69
2017-12-19T03:43:36.508Z,100890.50
2017-12-19T03:46:04.016Z,100888.06
2017-12-19T03:48:31.465Z,100898.47
2017-12-19T03:50:58.937Z,100900.00
2017-12-19T03:53:26.427Z,100895.69
2017-12-19T03:55:53.887Z,100889.19
2017-12-19T03:58:22.003Z,100889.23
2017-12-19T04:00:49.479Z,100891.20
2017-12-19T04:03:16.950Z,100896.01
2017-12-19T04:05:44.424Z,100890.39
2017-12-19T04:08:11.931Z,100895.41
2017-12-19T04:10:39.491Z,100886.45
2017-12-19T04:13:06.954Z,100889.82
2017-12-19T04:15:34.448Z,100889.55
2017-12-19T04:18:01.912Z,100899.91
2017-12-19T04:20:29.381Z,100900.70
2017-12-19T04:22:56.848Z,100896.36
2017-12-19T04:25:24.312Z,100895.32
2017-12-19T04:27:51.795Z,100898.58
2017-12-19T04:30:19.305Z,100907.52
2017-12-19T04:32:47.090Z,100908.00
2017-12-19T04:35:14.617Z,100913.78
2017-12-19T04:37:42.091Z,100918.36
2017-12-19T04:40:09.571Z,100921.50
2017-12-19T04:42:37.047Z,100918.20
2017-12-19T04:45:04.528Z,100925.98
2017-12-19T04:47:32.068Z,100933.56
2017-12-19T04:49:59.570Z,100929.02
2017-12-19T04:52:27.039Z,100930.92
2017-12-19T04:57:27.204Z,100927.56
2017-12-19T04:59:54.671Z,100934.71
2017-12-19T05:02:22.142Z,100935.56
2017-12-19T05:04:49.620Z,100943.67
2017-12-19T05:07:17.112Z,100940.75
2017-12-19T05:09:44.587Z,100949.36
2017-12-19T05:12:12.056Z,100949.48
2017-12-19T05:14:39.511Z,100952.88
2017-12-19T05:17:06.999Z,100953.52
2017-12-19T05:19:34.482Z,100955.73
2017-12-19T05:22:01.960Z,100960.30
2017-12-19T05:24:29.959Z,100961.81
2017-12-19T05:26:57.435Z,100969.05
2017-12-19T05:29:24.899Z,100963.39
2017-12-19T05:31:52.369Z,100969.15
2017-12-19T05:34:19.820Z,100970.04
2017-12-19T05:36:47.291Z,100969.59
2017-12-19T05:39:14.742Z,100979.31
2017-12-19T05:41:42.215Z,100985.45
2017-12-19T05:44:09.706Z,100989.62
2017-12-19T05:46:37.177Z,100990.16
2017-12-19T05:49:04.904Z,100985.44
2017-12-19T05:51:32.419Z,100988.47
2017-12-19T05:53:59.884Z,100987.52
2017-12-19T05:56:27.415Z,100992.72
2017-12-19T05:58:54.893Z,101001.65
2017-12-19T06:01:22.502Z,100992.19
2017-12-19T06:03:49.995Z,101000.80
2017-12-19T06:06:17.521Z,101009.86
2017-12-19T06:08:44.981Z,101006.24
2017-12-19T06:11:12.469Z,101016.72
2017-12-19T06:13:39.947Z,101021.79
2017-12-19T06:16:07.458Z,101018.62
2017-12-19T06:18:34.941Z,101013.69
2017-12-19T06:21:02.421Z,101025.72
2017-12-19T06:23:29.950Z,101016.94
2017-12-19T06:26:01.076Z,101024.09
2017-12-19T06:28:29.100Z,101030.81
2017-12-19T06:30:58.167Z,101036.39
2017-12-19T06:33:26.117Z,101037.37
2017-12-19T06:35:54.153Z,101043.07
2017-12-19T06:38:25.716Z,101041.84
2017-12-19T06:40:53.212Z,101040.25
2017-12-19T06:43:20.687Z,101047.26
2017-12-19T06:45:48.252Z,101054.60
2017-12-19T06:48:15.805Z,101050.64
2017-12-19T06:50:43.275Z,101053.91
2017-12-19T06:53:10.739Z,101055.53
2017-12-19T06:55:38.207Z,101060.34
2017-12-19T06:58:05.713Z,101057.80
2017-12-19T07:00:33.474Z,101069.68
2017-12-19T07:03:01.014Z,101068.05
2017-12-19T07:08:02.235Z,101061.02
2017-12-19T07:10:29.708Z,101063.28
2017-12-19T07:13:01.426Z,101062.75
2017-12-19T07:15:28.912Z,101062.77
2017-12-19T07:17:56.385Z,101066.45
2017-12-19T07:20:23.871Z,101061.97
2017-12-19T07:22:51.351Z,101063.33
2017-12-19T07:25:18.815Z,101065.53
2017-12-19T07:27:46.426Z,101069.76
2017-12-19T07:30:13.980Z,101069.77
2017-12-19T07:32:41.447Z,101076.43
2017-12-19T07:35:08.919Z,101071.94
2017-12-19T07:37:36.404Z,101073.81
2017-12-19T07:40:03.855Z,101066.55
2017-12-19T07:42:31.331Z,101067.54
2017-12-19T07:44:58.825Z,101069.84
2017-12-19T07:47:26.354Z,101073.12
2017-12-19T07:49:53.812Z,101069.69
2017-12-19T07:52:21.291Z,101066.86
2017-12-19T07:54:49.106Z,101068.41
2017-12-19T07:57:16.600Z,101069.70
2017-12-19T07:59:44.125Z,101074.74
2017-12-19T08:02:11.713Z,101073.69
2017-12-19T08:04:39.193Z,101072.52
2017-12-19T08:07:06.694Z,101070.27
2017-12-19T08:09:34.175Z,101068.13
2017-12-19T08:12:01.661Z,101078.64
2017-12-19T08:14:29.297Z,101077.39
2017-12-19T08:16:56.841Z,101087.83
2017-12-19T08:19:24.292Z,101085.50
2017-12-19T08:21:51.942Z,101083.79
2017-12-19T08:24:19.435Z,101087.06
2017-12-19T08:26:46.982Z,101104.72
2017-12-19T08:29:14.540Z,101099.91
2017-12-19T08:31:42.091Z,101099.16
2017-12-19T08:34:09.589Z,101099.92
2017-12-19T08:36:37.118Z,101100.63
2017-12-19T08:39:05.543Z,101095.12
2017-12-19T08:41:33.031Z,101097.14
2017-12-19T08:44:00.539Z,101101.41
2017-12-19T08:46:28.340Z,101111.13
2017-12-19T08:48:55.799Z,101105.56
2017-12-19T08:51:23.269Z,101104.78
2017-12-19T08:53:52.286Z,101110.37
2017-12-19T08:56:19.909Z,101107.84
2017-12-19T08:58:47.583Z,101113.91
2017-12-19T09:01:15.119Z,101111.20
2017-12-19T09:03:42.602Z,101113.45
2017-12-19T09:06:10.131Z,101118.84
2017-12-19T09:08:37.611Z,101104.77
2017-12-19T09:11:05.072Z,101108.21
2017-12-19T09:13:32.971Z,101106.23
2017-12-19T09:16:00.433Z,101108.15
2017-12-19T09:18:27.992Z,101100.30
2017-12-19T09:20:55.470Z,101105.20
2017-12-19T09:23:22.993Z,101099.16
2017-12-19T09:25:50.644Z,101096.20
2017-12-19T09:28:19.106Z,101110.17
2017-12-19T09:30:46.856Z,101102.75
2017-12-19T09:33:14.326Z,101094.56
2017-12-19T09:35:41.797Z,101109.72
2017-12-19T09:38:09.272Z,101116.88
2017-12-19T09:40:39.899Z,101096.27
2017-12-19T09:43:07.409Z,101103.10
2017-12-19T09:45:34.911Z,101100.63
2017-12-19T09:48:02.402Z,101096.38
2017-12-19T09:50:30.210Z,101094.00
2017-12-19T09:52:57.925Z,101093.56
2017-12-19T09:55:25.538Z,101095.88
2017-12-19T09:57:53.071Z,101099.28
2017-12-19T10:00:20.703Z,101097.44
2017-12-19T10:02:48.401Z,101098.78
2017-12-19T10:05:16.917Z,101098.43
2017-12-19T10:07:44.657Z,101096.36
2017-12-19T10:10:14.070Z,101088.59
2017-12-19T10:12:43.199Z,101088.48
2017-12-19T10:15:10.877Z,101102.86
2017-12-19T10:17:38.481Z,101091.55
2017-12-19T10:20:06.139Z,101092.78
2017-12-19T10:22:33.844Z,101097.30
2017-12-19T10:25:01.704Z,101092.62
2017-12-19T10:27:29.370Z,101095.67
2017-12-19T10:29:57.852Z,101100.91
2017-12-19T10:32:25.682Z,101098.53
2017-12-19T10:34:53.636Z,101107.98
2017-12-19T10:37:21.227Z,101101.09
2017-12-19T10:40:01.812Z,101099.72
2017-12-19T10:42:30.685Z,101098.25
2017-12-19T10:44:58.190Z,101098.21
2017-12-19T10:47:26.708Z,101102.80
2017-12-19T10:49:54.542Z,101096.24
2017-12-19T10:52:25.743Z,101099.52
2017-12-19T10:54:53.713Z,101097.67
2017-12-19T10:57:22.624Z,101097.69
2017-12-19T11:00:02.982Z,101096.16
2017-12-19T11:02:30.707Z,101094.87
2017-12-19T11:04:58.374Z,101092.24
2017-12-19T11:07:25.847Z,101094.95
2017-12-19T11:09:55.529Z,101094.31
2017-12-19T11:12:22.999Z,101091.98
2017-12-19T11:14:50.517Z,101103.33
2017-12-19T11:17:17.996Z,101099.08
2017-12-19T11:19:45.472Z,101099.58
2017-12-19T11:22:13.000Z,101107.34
2017-12-19T11:24:40.509Z,101105.25
2017-12-19T11:27:08.031Z,101109.73
2017-12-19T11:29:35.610Z,101117.28
2017-12-19T11:32:03.209Z,101108.98
2017-12-19T11:34:30.806Z,101116.06
2017-12-19T11:36:58.619Z,101121.25
2017-12-19T11:39:26.535Z,101112.85
2017-12-19T11:41:54.079Z,101115.25
2017-12-19T11:44:21.950Z,101111.59
2017-12-19T11:46:49.412Z,101104.36
2017-12-19T11:49:16.909Z,101111.63
2017-12-19T11:51:44.416Z,101100.05
2017-12-19T11:54:12.001Z,101102.69
2017-12-19T11:56:39.524Z,101079.47
2017-12-19T11:59:07.028Z,101078.63
2017-12-19T12:01:35.413Z,101085.33
2017-12-19T12:04:02.917Z,101068.20
2017-12-19T12:06:30.400Z,101070.09
2017-12-19T12:08:57.884Z,101063.23
2017-12-19T12:11:25.928Z,101066.52
2017-12-19T12:13:53.482Z,101053.50
2017-12-19T12:16:20.944Z,101044.22
2017-12-19T12:18:48.416Z,101038.22
2017-12-19T12:21:15.900Z,101034.00
2017-12-19T12:23:43.373Z,101041.64
2017-12-19T12:26:10.822Z,101037.75
2017-12-19T12:28:38.299Z,101031.10
2017-12-19T12:31:05.759Z,101023.00
2017-12-19T12:33:33.268Z,101027.90
2017-12-19T12:36:00.779Z,101033.19
2017-12-19T12:38:28.256Z,101027.39
2017-12-19T12:40:55.750Z,101030.95
2017-12-19T12:43:23.199Z,101037.00
2017-12-19T12:45:50.708Z,101042.00
2017-12-19T12:48:18.189Z,101025.23
2017-12-19T12:50:45.825Z,101036.46
2017-12-19T12:53:13.321Z,101042.19
2017-12-19T12:55:41.016Z,101023.16
2017-12-19T12:58:08.575Z,101033.37
2017-12-19T13:00:36.078Z,101033.86
2017-12-19T13:03:03.584Z,101037.31
2017-12-19T13:05:31.051Z,101023.39
2017-12-19T13:07:58.562Z,101023.08
2017-12-19T13:10:26.027Z,101008.44
2017-12-19T13:12:53.506Z,101004.05
2017-12-19T13:15:21.038Z,101003.83
2017-12-19T13:17:48.523Z,100989.10
2017-12-19T13:20:15.992Z,100993.75
2017-12-19T13:22:43.451Z,100991.83
2017-12-19T13:25:10.918Z,100990.67
2017-12-19T13:27:38.369Z,100991.36
2017-12-19T13:30:05.964Z,100987.26
2017-12-19T13:32:33.419Z,100978.23
2017-12-19T13:35:00.889Z,100985.43
2017-12-19T13:37:28.413Z,100990.36
2017-12-19T13:39:55.865Z,100981.40
2017-12-19T13:42:23.333Z,100980.45
2017-12-19T13:44:50.780Z,100984.61
2017-12-19T13:47:18.240Z,100991.66
2017-12-19T13:49:45.717Z,100993.91
2017-12-19T13:52:13.201Z,100992.13
2017-12-19T13:54:40.654Z,100997.32
2017-12-19T13:57:08.124Z,100991.05
2017-12-19T13:59:35.604Z,100986.47
2017-12-19T14:02:03.052Z,100996.78
2017-12-19T14:04:30.617Z,100983.14
2017-12-19T14:06:58.080Z,100979.97
2017-12-19T14:09:25.526Z,100977.17
2017-12-19T14:11:52.995Z,100983.52
2017-12-19T14:14:20.463Z,100971.17
2017-12-19T14:16:47.944Z,100971.44
2017-12-19T14:19:15.418Z,100984.20
2017-12-19T14:21:43.273Z,100975.44
2017-12-19T14:24:10.753Z,100977.53
2017-12-19T14:26:38.219Z,100983.84
2017-12-19T14:29:06.415Z,100994.03
2017-12-19T14:31:36.968Z,100990.63
2017-12-19T14:34:05.609Z,100995.98
2017-12-19T14:36:36.692Z,100988.28
2017-12-19T14:39:04.416Z,100990.07
2017-12-19T14:41:31.901Z,101003.86
2017-12-19T14:43:59.364Z,100985.92
2017-12-19T14:46:27.740Z,100993.84
2017-12-19T14:48:55.376Z,100994.92
2017-12-19T14:51:23.179Z,101002.15
2017-12-19T14:53:50.675Z,101006.55
2017-12-19T14:56:18.199Z,101018.06
2017-12-19T14:58:45.677Z,101016.12
2017-12-19T15:01:13.166Z,101014.81
2017-12-19T15:03:40.645Z,101014.06
2017-12-19T15:06:08.109Z,101021.72
2017-12-19T15:08:35.604Z,101021.42
2017-12-19T15:11:03.160Z,101019.17
2017-12-19T15:13:30.657Z,101017.61
2017-12-19T15:15:58.124Z,101023.21
2017-12-19T15:18:26.094Z,101029.72
2017-12-19T15:20:53.739Z,101030.82
2017-12-19T15:23:21.414Z,101036.65
2017-12-19T15:25:56.142Z,101028.41
2017-12-19T15:28:25.684Z,101033.27
2017-12-19T15:30:58.990Z,101040.16
2017-12-19T15:33:26.880Z,101037.54
2017-12-19T15:35:54.544Z,101023.44
2017-12-19T15:38:22.069Z,101033.77
2017-12-19T15:40:49.533Z,101027.75
2017-12-19T15:43:17.010Z,101028.12
2017-12-19T15:45:44.564Z,101038.52
2017-12-19T15:48:12.040Z,101025.09
2017-12-19T15:50:39.523Z,101033.34
2017-12-19T15:53:07.017Z,101029.75
2017-12-19T15:55:34.472Z,101035.88
2017-12-19T15:58:02.008Z,101031.88
2017-12-19T16:00:29.483Z,101038.95
2017-12-19T16:02:56.947Z,101037.64
2017-12-19T16:05:24.425Z,101034.22
2017-12-19T16:07:52.058Z,101031.92
2017-12-19T16:10:19.560Z,101035.66
2017-12-19T16:12:47.061Z,101047.48
2017-12-19T16:15:14.571Z,101037.50
2017-12-19T16:17:42.073Z,101028.00
2017-12-19T16:20:09.532Z,101028.39
2017-12-19T16:22:37.030Z,101030.20
2017-12-19T16:25:04.579Z,101021.78
2017-12-19T16:27:32.061Z,101025.89
2017-12-19T16:29:59.537Z,101022.93
2017-12-19T16:32:27.016Z,101017.98
2017-12-19T16:34:54.485Z,101019.70
2017-12-19T16:37:21.997Z,101024.00
2017-12-19T16:39:49.521Z,101020.60
2017-12-19T16:42:17.013Z,101021.23
2017-12-19T16:44:44.514Z,101018.90
2017-12-19T16:47:12.006Z,101020.16
2017-12-19T16:49:39.466Z,101010.41
2017-12-19T16:52:06.966Z,101008.50
2017-12-19T16:54:34.453Z,101002.83
2017-12-19T16:57:01.963Z,101003.12
2017-12-19T16:59:29.483Z,100990.81
2017-12-19T17:01:57.355Z,100990.63
2017-12-19T17:04:25.377Z,100987.73
2017-12-19T17:06:54.484Z,100990.66
2017-12-19T17:09:22.613Z,100996.61
2017-12-19T17:11:50.177Z,100998.02
2017-12-19T17:14:17.685Z,101004.16
2017-12-19T17:16:45.161Z,100994.84
2017-12-19T17:19:13.535Z,101006.12
2017-12-19T17:21:41.098Z,101011.66
2017-12-19T17:24:08.575Z,101016.31
2017-12-19T17:26:36.108Z,101016.80
2017-12-19T17:29:04.090Z,101020.92
2017-12-19T17:31:31.572Z,101021.55
2017-12-19T17:33:59.071Z,101017.13
2017-12-19T17:36:26.559Z,101013.02
2017-12-19T17:38:54.262Z,101009.80
2017-12-19T17:41:21.937Z,101017.05
2017-12-19T17:43:49.420Z,101019.73
2017-12-19T17:46:16.928Z,101018.72
2017-12-19T17:48:45.251Z,101011.67
2017-12-19T17:51:15.065Z,101013.52
2017-12-19T17:53:42.935Z,101009.86
2017-12-19T17:56:10.492Z,101003.72
2017-12-19T17:58:37.972Z,101006.47
2017-12-19T18:01:05.469Z,101000.69
2017-12-19T18:03:32.947Z,101001.42
2017-12-19T18:06:00.435Z,100995.55
2017-12-19T18:08:28.687Z,101001.53
2017-12-19T18:10:56.265Z,100997.39
2017-12-19T18:13:24.913Z,101000.52
2017-12-19T18:15:52.473Z,100990.98
2017-12-19T18:18:19.989Z,101002.58
2017-12-19T18:20:47.504Z,100994.89
2017-12-19T18:23:14.997Z,100993.45
2017-12-19T18:25:42.475Z,100999.16
2017-12-19T18:28:09.991Z,100998.68
2017-12-19T18:30:37.480Z,100989.67
2017-12-19T18:33:04.985Z,100982.67
2017-12-19T18:35:32.514Z,100991.24
2017-12-19T18:38:00.111Z,100986.45
2017-12-19T18:40:27.746Z,100983.67
2017-12-19T18:42:56.064Z,100988.20
2017-12-19T18:45:23.600Z,100987.50
2017-12-19T18:47:51.251Z,100981.89
2017-12-19T18:50:18.864Z,100976.63
2017-12-19T18:52:46.417Z,100987.84
2017-12-19T18:55:14.066Z,100979.80
2017-12-19T18:57:42.353Z,100986.98
2017-12-19T19:00:09.977Z,100994.34
2017-12-19T19:02:37.506Z,100992.95
2017-12-19T19:05:05.020Z,100995.86
2017-12-19T19:07:32.526Z,100993.38
2017-12-19T19:10:00.144Z,100989.47
2017-12-19T19:12:27.689Z,100986.98
2017-12-19T19:14:55.335Z,100991.11
2017-12-19T19:17:22.892Z,100991.50
2017-12-19T19:19:50.489Z,100993.55
2017-12-19T19:22:18.147Z,101000.59
2017-12-19T19:24:45.998Z,100992.02
2017-12-19T19:27:13.584Z,100999.77
2017-12-19T19:29:41.412Z,100997.47
2017-12-19T19:32:09.017Z,101002.77
2017-12-19T19:34:36.640Z,101001.38
2017-12-19T19:37:04.645Z,101009.73
2017-12-19T19:39:33.855Z,101013.77
2017-12-19T19:42:01.627Z,101015.68
2017-12-19T19:44:29.600Z,101003.23
2017-12-19T19:46:57.169Z,101001.73
2017-12-19T19:49:24.816Z,100997.64
2017-12-19T19:51:53.222Z,101004.30
2017-12-19T19:54:21.424Z,101000.12
2017-12-19T19:56:49.161Z,101005.19
2017-12-19T19:59:16.746Z,101003.53
2017-12-19T20:01:44.412Z,101012.66
2017-12-19T20:04:12.032Z,101011.83
2017-12-19T20:06:42.825Z,101021.19
2017-12-19T20:09:10.806Z,101025.80
2017-12-19T20:11:38.529Z,101025.55
2017-12-19T20:14:06.319Z,101039.27
2017-12-19T20:16:33.848Z,101040.92
2017-12-19T20:19:01.382Z,101027.11
2017-12-19T20:21:28.967Z,101032.05
2017-12-19T20:23:56.565Z,101028.61
2017-12-19T20:26:24.219Z,101031.62
2017-12-19T20:28:51.803Z,101028.80
2017-12-19T20:31:19.382Z,101033.84
2017-12-19T20:33:46.936Z,101037.28
2017-12-19T20:36:14.652Z,101029.23
2017-12-19T20:38:42.236Z,101034.05
2017-12-19T20:41:11.166Z,101051.00
2017-12-19T20:43:39.352Z,101030.41
2017-12-19T20:46:07.016Z,101044.41
2017-12-19T20:48:34.832Z,101037.77
2017-12-19T20:51:02.490Z,101039.70
2017-12-19T20:53:30.085Z,101043.97
2017-12-19T20:55:57.813Z,101047.41
2017-12-19T20:58:25.516Z,101053.86
2017-12-19T21:00:53.283Z,101053.67
2017-12-19T21:03:21.026Z,101045.72
2017-12-19T21:05:48.637Z,101048.14
2017-12-19T21:08:16.356Z,101045.91
2017-12-19T21:10:43.882Z,101046.69
2017-12-19T21:13:11.820Z,101051.14
2017-12-19T21:15:39.332Z,101054.55
2017-12-19T21:18:06.932Z,101047.27
2017-12-19T21:20:34.504Z,101040.33
2017-12-19T21:23:02.058Z,101033.74
2017-12-19T21:25:29.669Z,101035.98
2017-12-19T21:27:57.144Z,101041.41
2017-12-19T21:30:24.686Z,101042.41
2017-12-19T21:32:52.306Z,101046.93
2017-12-19T21:35:19.874Z,101042.71
2017-12-19T21:37:47.381Z,101053.95
2017-12-19T21:40:14.916Z,101043.93
2017-12-19T21:42:42.504Z,101053.09
2017-12-19T21:45:10.000Z,101048.62
2017-12-19T21:47:37.526Z,101054.55
2017-12-19T21:50:05.095Z,101048.23
2017-12-19T21:52:32.633Z,101050.30
2017-12-19T21:55:00.175Z,101047.70
2017-12-19T21:57:28.245Z,101065.05
2017-12-19T21:59:55.736Z,101047.58
2017-12-19T22:02:23.318Z,101052.39
2017-12-19T22:04:50.859Z,101051.22
2017-12-19T22:07:18.532Z,101050.11
2017-12-19T22:09:46.024Z,101058.01
2017-12-19T22:12:13.577Z,101048.44
2017-12-19T22:14:41.127Z,101051.93
2017-12-19T22:17:08.672Z,101056.55
2017-12-19T22:19:36.428Z,101064.79
2017-12-19T22:22:04.031Z,101051.11
2017-12-19T22:24:31.576Z,101061.05
2017-12-19T22:26:59.085Z,101066.91
2017-12-19T22:29:26.580Z,101058.72
2017-12-19T22:31:54.079Z,101063.67
2017-12-19T22:34:22.171Z,101063.72
2017-12-19T22:36:49.654Z,101058.86
2017-12-19T22:39:17.160Z,101058.39
2017-12-19T22:41:44.636Z,101056.31
2017-12-19T22:44:12.113Z,101055.96
2017-12-19T22:46:39.635Z,101057.37
2017-12-19T22:49:07.108Z,101057.81
2017-12-19T22:51:35.666Z,101056.64
2017-12-19T22:54:03.216Z,101051.16
2017-12-19T22:56:30.712Z,101051.13
2017-12-19T22:58:58.193Z,101057.97
2017-12-19T23:01:25.655Z,101058.13
2017-12-19T23:03:53.132Z,101052.09
2017-12-19T23:08:54.244Z,101056.81
2017-12-19T23:11:21.788Z,101053.66
2017-12-19T23:13:49.334Z,101056.58
2017-12-19T23:16:16.806Z,101061.00
2017-12-19T23:18:44.399Z,101055.41
2017-12-19T23:21:12.000Z,101055.39
2017-12-19T23:23:39.509Z,101053.66
2017-12-19T23:26:07.034Z,101047.93
2017-12-19T23:28:34.524Z,101050.27
2017-12-19T23:31:02.008Z,101038.95
2017-12-19T23:33:29.495Z,101043.19
2017-12-19T23:35:57.016Z,101048.66
2017-12-19T23:38:24.531Z,101039.35
2017-12-19T23:40:52.212Z,101043.92
2017-12-19T23:43:19.883Z,101051.92
2017-12-19T23:45:47.482Z,101039.67
2017-12-19T23:48:14.950Z,101043.57
2017-12-19T23:50:42.457Z,101039.78
2017-12-19T23:53:09.940Z,101043.34
2017-12-19T23:55:37.428Z,101059.17
2017-12-19T23:58:04.923Z,101036.78
